Time;durP1;ratioP1;P1;durP2;ratioP2;P2;SDS_P1;SDS_P2;PMS_P1;PMS_P2;Temp;Humidity;BMP_temperature;BMP_pressure;BME280_temperature;BME280_humidity;BME280_pressure;Samples;Min_cycle;Max_cycle;Signal;HPM_P1;HPM_P2
2021/03/18 00:02:17;;;;;;;;;17.25;17.00;;;;;10.96;40.40;98864.94;6184351;28;125331;-59
2021/03/18 00:05:19;;;;;;;;;17.50;15.00;;;;;11.20;40.24;98899.13;6183072;28;126710;-59
2021/03/18 00:08:21;;;;;;;;;17.00;15.00;;;;;11.16;40.06;98900.63;6181664;28;126935;-59
2021/03/18 00:11:27;;;;;;;;;16.40;14.20;;;;;11.19;40.12;98906.38;6182827;28;126317;-59
2021/03/18 00:14:28;;;;;;;;;15.00;14.40;;;;;11.15;40.27;98897.09;6182794;28;126473;-59
2021/03/18 00:17:30;;;;;;;;;21.25;18.00;;;;;11.14;40.20;98891.94;6183441;28;126266;-59
2021/03/18 00:20:32;;;;;;;;;15.20;14.00;;;;;11.12;40.27;98902.97;6183634;28;125172;-59
2021/03/18 00:23:34;;;;;;;;;17.20;14.60;;;;;11.11;40.04;98897.78;6184309;28;124794;-59
2021/03/18 00:26:36;;;;;;;;;19.00;18.00;;;;;11.11;40.36;98901.31;6183104;28;127162;-59
2021/03/18 00:29:37;;;;;;;;;17.20;16.00;;;;;11.16;40.19;98900.63;6184490;28;126467;-59
2021/03/18 00:32:44;;;;;;;;;16.00;14.60;;;;;10.99;40.17;98864.53;6184084;28;124717;-59
2021/03/18 00:35:46;;;;;;;;;14.20;13.20;;;;;11.16;40.21;98892.53;6183641;28;124552;-59
2021/03/18 00:38:48;;;;;;;;;15.50;15.50;;;;;11.13;40.05;98880.34;6182893;28;126977;-59
2021/03/18 00:41:49;;;;;;;;;15.00;14.00;;;;;11.11;40.00;98884.28;6183829;28;126517;-59
2021/03/18 00:44:51;;;;;;;;;15.60;14.20;;;;;11.12;40.19;98888.63;6183424;28;125362;-59
2021/03/18 00:47:54;;;;;;;;;16.00;15.00;;;;;11.10;40.08;98896.13;6163053;28;125099;-59
2021/03/18 00:50:58;;;;;;;;;15.00;14.00;;;;;11.08;40.04;98887.44;6183646;28;125259;-59
2021/03/18 00:54:02;;;;;;;;;14.20;12.20;;;;;11.01;40.02;98874.03;6183358;28;125943;-59
2021/03/18 00:57:04;;;;;;;;;16.00;15.00;;;;;11.01;40.17;98878.59;6183532;28;125183;-59
2021/03/18 01:00:15;;;;;;;;;16.25;14.00;;;;;11.05;40.03;98883.31;6174917;28;125392;-59
2021/03/18 01:03:21;;;;;;;;;15.00;15.00;;;;;11.03;39.78;98874.63;6159075;28;124874;-59
2021/03/18 01:06:26;;;;;;;;;12.60;11.60;;;;;11.05;39.94;98871.69;6158881;28;126420;-59
2021/03/18 01:09:29;;;;;;;;;12.80;10.80;;;;;11.02;40.08;98889.16;6183100;28;125435;-59
2021/03/18 01:12:30;;;;;;;;;12.00;11.50;;;;;11.04;40.19;98873.59;6183348;28;125442;-59
2021/03/18 01:15:32;;;;;;;;;13.00;11.00;;;;;11.04;40.08;98875.47;6182979;28;127157;-59
2021/03/18 01:18:40;;;;;;;;;14.00;13.00;;;;;10.88;39.90;98855.28;6181656;28;125378;-59
2021/03/18 01:21:46;;;;;;;;;11.00;10.20;;;;;11.03;40.02;98873.81;6161820;28;124781;-59
2021/03/18 01:24:48;;;;;;;;;13.60;11.60;;;;;11.05;40.29;98874.38;6183931;28;126856;-59
2021/03/18 01:27:49;;;;;;;;;13.60;12.00;;;;;10.60;39.69;98803.75;6183043;28;126662;-59
2021/03/18 01:30:52;;;;;;;;;12.60;11.40;;;;;11.03;39.82;98880.03;6147015;28;124163;-59
2021/03/18 01:33:55;;;;;;;;;10.50;10.00;;;;;10.67;39.76;98826.06;6183066;28;125100;-59
2021/03/18 01:36:56;;;;;;;;;11.00;10.00;;;;;11.03;39.58;98871.09;6182687;28;126490;-59
2021/03/18 01:39:57;;;;;;;;;12.00;11.00;;;;;11.03;39.77;98868.41;6185318;28;126478;-59
2021/03/18 01:42:59;;;;;;;;;11.00;11.00;;;;;11.05;39.37;98869.00;6185452;28;126807;-59
2021/03/18 01:46:01;;;;;;;;;11.00;10.40;;;;;11.06;39.74;98873.34;6185142;28;125472;-59
2021/03/18 01:49:04;;;;;;;;;12.40;12.00;;;;;10.98;39.51;98874.47;6185132;28;125129;-59
2021/03/18 01:52:06;;;;;;;;;14.00;13.00;;;;;10.95;39.56;98872.22;6185157;28;127198;-59
2021/03/18 01:55:10;;;;;;;;;12.20;12.00;;;;;10.94;39.78;98870.59;6177951;28;126679;-59
2021/03/18 01:58:12;;;;;;;;;12.00;11.00;;;;;10.90;39.82;98876.66;6160871;28;124664;-59
2021/03/18 02:01:18;;;;;;;;;14.00;13.60;;;;;10.87;39.71;98880.63;6186799;28;126293;-59
2021/03/18 02:04:20;;;;;;;;;13.00;11.75;;;;;10.87;39.55;98880.63;6186819;28;124631;-59
2021/03/18 02:07:22;;;;;;;;;13.40;12.60;;;;;10.84;39.63;98878.38;6186522;28;126054;-59
2021/03/18 02:10:28;;;;;;;;;12.00;11.00;;;;;10.82;39.87;98883.16;6187370;28;127460;-59
2021/03/18 02:13:30;;;;;;;;;12.75;11.75;;;;;10.80;40.06;98877.16;6186547;28;126018;-59
2021/03/18 02:16:37;;;;;;;;;11.60;10.40;;;;;10.70;39.95;98869.56;6186879;28;125256;-59
2021/03/18 02:20:03;;;;;;;;;13.00;12.00;;;;;10.82;39.99;98878.59;6185570;28;123797;-59
2021/03/18 02:23:20;;;;;;;;;15.00;12.80;;;;;10.84;40.32;98879.19;6185742;28;126143;-59
2021/03/18 02:26:33;;;;;;;;;13.50;12.50;;;;;10.84;40.46;98878.38;6186120;28;124618;-59
2021/03/18 02:29:53;;;;;;;;;12.50;12.00;;;;;10.84;40.46;98886.47;6184742;28;126998;-59
2021/03/18 02:33:32;;;;;;;;;14.00;13.60;;;;;10.83;40.77;98884.81;6185911;28;125270;-59
2021/03/18 02:36:37;;;;;;;;;16.00;15.00;;;;;10.84;40.85;98875.69;6186050;28;125682;-59
2021/03/18 02:40:04;;;;;;;;;14.20;14.00;;;;;10.81;40.96;98881.50;6164927;28;126058;-59
2021/03/18 02:43:09;;;;;;;;;16.00;13.00;;;;;10.59;41.04;98847.94;6169331;28;124399;-59
2021/03/18 02:46:11;;;;;;;;;13.50;13.50;;;;;10.82;41.17;98880.47;6177592;28;126420;-59
2021/03/18 02:49:15;;;;;;;;;14.00;13.50;;;;;10.79;41.36;98887.13;6159671;28;126259;-59
2021/03/18 02:52:22;;;;;;;;;15.00;13.50;;;;;10.72;41.57;98872.06;6185228;28;124735;-59
2021/03/18 02:55:25;;;;;;;;;16.60;15.00;;;;;10.50;41.52;98838.50;6185660;28;124736;-59
2021/03/18 02:58:30;;;;;;;;;21.00;18.00;;;;;10.78;41.55;98893.56;6185511;28;126617;-59
2021/03/18 03:01:33;;;;;;;;;20.00;17.40;;;;;10.78;41.78;98890.03;6185535;28;125275;-59
2021/03/18 03:04:38;;;;;;;;;21.00;19.00;;;;;10.75;41.77;98896.69;6185001;28;125089;-59
2021/03/18 03:07:43;;;;;;;;;19.00;18.80;;;;;10.72;41.96;98893.63;6139362;28;125889;-59
2021/03/18 03:10:47;;;;;;;;;19.60;18.00;;;;;10.56;41.81;98886.94;6139371;28;125145;-59
2021/03/18 03:13:50;;;;;;;;;19.00;18.00;;;;;10.70;42.12;98887.66;6161464;28;125157;-59
2021/03/18 03:16:52;;;;;;;;;19.50;18.50;;;;;10.72;42.15;98888.22;6185875;28;125561;-59
2021/03/18 03:19:56;;;;;;;;;20.00;19.50;;;;;10.70;42.18;98888.44;6184248;28;124594;-59
2021/03/18 03:23:01;;;;;;;;;22.20;21.00;;;;;10.71;42.08;98891.97;6184802;28;126546;-59
2021/03/18 03:26:03;;;;;;;;;20.00;19.00;;;;;10.71;41.98;98894.66;6184672;28;124850;-59
2021/03/18 03:29:07;;;;;;;;;23.00;21.00;;;;;10.56;42.06;98869.91;6185641;28;125684;-59
2021/03/18 03:32:09;;;;;;;;;22.00;21.00;;;;;10.49;42.23;98867.31;6175602;28;126298;-59
2021/03/18 03:35:13;;;;;;;;;21.00;19.80;;;;;10.69;42.18;98896.78;6182755;28;124175;-59
2021/03/18 03:38:14;;;;;;;;;23.20;22.00;;;;;10.68;42.47;98906.72;6184265;28;127772;-59
2021/03/18 03:41:16;;;;;;;;;20.40;19.00;;;;;10.69;42.23;98903.00;6183008;28;125380;-59
2021/03/18 03:44:18;;;;;;;;;20.00;19.00;;;;;10.65;42.43;98904.47;6183279;28;127649;-59
2021/03/18 03:47:19;;;;;;;;;24.40;22.40;;;;;10.60;42.56;98898.94;6183660;28;126546;-59
2021/03/18 03:50:25;;;;;;;;;23.00;22.00;;;;;10.61;42.45;98892.47;6183997;28;125288;-59
2021/03/18 03:53:45;;;;;;;;;26.40;23.40;;;;;10.61;42.42;98902.44;6182233;28;126623;-59
2021/03/18 03:56:58;;;;;;;;;23.00;21.00;;;;;10.62;42.57;98899.53;6184891;28;126776;-59
2021/03/18 04:00:02;;;;;;;;;22.60;20.60;;;;;10.64;42.64;98900.16;6183895;28;125080;-59
2021/03/18 04:03:14;;;;;;;;;23.40;21.40;;;;;10.45;42.35;98868.81;6183836;28;125461;-59
2021/03/18 04:06:17;;;;;;;;;21.40;20.40;;;;;10.66;42.28;98906.13;6183920;28;126136;-59
2021/03/18 04:09:20;;;;;;;;;23.67;21.67;;;;;10.66;42.25;98908.00;6184225;28;124564;-59
2021/03/18 04:12:29;;;;;;;;;23.50;21.50;;;;;10.64;42.17;98896.63;6184395;28;127321;-59
2021/03/18 04:15:34;;;;;;;;;24.25;23.25;;;;;10.71;42.10;98917.06;6183981;28;126118;-59
2021/03/18 04:18:39;;;;;;;;;23.00;23.00;;;;;10.52;42.01;98880.34;6160616;28;126012;-59
2021/03/18 04:21:45;;;;;;;;;25.20;23.20;;;;;10.67;42.25;98923.94;6184002;28;125878;-59
2021/03/18 04:24:48;;;;;;;;;26.40;24.00;;;;;10.51;42.08;98896.72;6183414;28;126049;-59
2021/03/18 04:27:52;;;;;;;;;23.25;22.00;;;;;10.59;42.48;98912.63;6159687;28;126105;-59
2021/03/18 04:30:54;;;;;;;;;23.00;22.00;;;;;10.52;42.48;98915.38;6183518;28;126055;-59
2021/03/18 04:33:57;;;;;;;;;23.40;21.40;;;;;10.55;42.48;98911.44;6164319;28;127686;-59
2021/03/18 04:37:04;;;;;;;;;24.00;21.75;;;;;10.34;42.49;98893.78;6164299;28;126288;-59
2021/03/18 04:40:10;;;;;;;;;22.00;21.75;;;;;10.29;42.49;98899.81;6174493;28;125966;-59
2021/03/18 04:43:12;;;;;;;;;21.75;20.00;;;;;10.44;42.20;98918.34;6174966;28;124236;-59
2021/03/18 04:46:14;;;;;;;;;19.00;17.80;;;;;10.32;41.99;98922.78;6182423;28;125055;-59
2021/03/18 04:49:19;;;;;;;;;20.00;19.00;;;;;10.41;42.30;98921.47;6181428;28;128207;-59
2021/03/18 04:52:20;;;;;;;;;20.00;19.00;;;;;10.35;42.27;98916.97;6181931;28;124154;-59
2021/03/18 04:55:24;;;;;;;;;18.80;17.20;;;;;10.35;41.87;98925.91;6183070;28;124255;-59
2021/03/18 04:58:26;;;;;;;;;18.25;17.25;;;;;10.28;42.17;98926.97;6183033;28;125096;-59
2021/03/18 05:01:30;;;;;;;;;22.00;20.00;;;;;10.37;42.05;98928.34;6182498;28;125147;-59
2021/03/18 05:04:33;;;;;;;;;19.00;17.40;;;;;10.10;41.93;98892.69;6182030;28;126939;-59
2021/03/18 05:07:36;;;;;;;;;20.00;18.00;;;;;10.23;42.01;98930.31;6181677;28;126090;-59
2021/03/18 05:10:41;;;;;;;;;22.50;19.00;;;;;9.98;41.87;98889.03;6181645;28;126844;-59
2021/03/18 05:13:45;;;;;;;;;19.40;18.40;;;;;10.18;41.96;98926.63;6183943;28;124676;-59
2021/03/18 05:16:49;;;;;;;;;20.60;18.60;;;;;10.14;42.06;98920.81;6175202;28;126224;-59
2021/03/18 05:19:51;;;;;;;;;18.00;17.00;;;;;10.18;42.05;98932.03;6174449;28;126113;-59
2021/03/18 05:22:54;;;;;;;;;19.00;17.00;;;;;10.18;42.09;98934.72;6142917;28;126973;-59
2021/03/18 05:25:55;;;;;;;;;20.75;19.00;;;;;10.23;41.96;98935.72;6162047;28;125969;-59
2021/03/18 05:28:57;;;;;;;;;21.60;19.00;;;;;10.26;41.84;98934.47;6162349;28;127505;-59
2021/03/18 05:31:58;;;;;;;;;18.20;17.20;;;;;10.21;41.56;98932.44;6162496;28;125476;-59
2021/03/18 05:35:00;;;;;;;;;21.00;19.00;;;;;10.20;41.59;98935.34;6180975;28;125903;-59
2021/03/18 05:38:01;;;;;;;;;18.00;18.00;;;;;10.11;41.61;98942.00;6187264;28;128784;-59
2021/03/18 05:41:03;;;;;;;;;22.50;20.00;;;;;9.93;41.67;98913.09;6168210;28;126567;-59
2021/03/18 05:44:07;;;;;;;;;19.00;18.80;;;;;10.13;41.74;98946.09;6186338;28;126626;-59
2021/03/18 05:47:10;;;;;;;;;20.50;17.50;;;;;10.10;41.46;98929.56;6177183;28;124883;-59
2021/03/18 05:50:16;;;;;;;;;21.00;19.00;;;;;10.08;41.30;98945.94;6184649;28;125050;-59
2021/03/18 05:53:19;;;;;;;;;17.25;16.25;;;;;9.97;41.23;98922.38;6186401;28;126259;-59
2021/03/18 05:56:24;;;;;;;;;17.00;16.00;;;;;9.96;41.18;98929.66;6172560;28;126038;-59
2021/03/18 05:59:28;;;;;;;;;17.00;16.00;;;;;10.19;41.00;98956.06;6161740;28;126280;-59
2021/03/18 06:02:32;;;;;;;;;17.00;17.00;;;;;10.09;40.90;98927.91;6185132;28;126263;-59
2021/03/18 06:05:34;;;;;;;;;16.00;15.00;;;;;10.32;40.40;98952.44;6185495;28;126004;-59
2021/03/18 06:08:37;;;;;;;;;17.00;15.33;;;;;10.34;40.50;98956.56;6186369;28;127497;-59
2021/03/18 06:11:40;;;;;;;;;18.00;17.60;;;;;10.39;40.17;98961.31;6164384;28;125006;-59
2021/03/18 06:14:41;;;;;;;;;19.40;17.40;;;;;10.38;40.22;98948.88;6186001;28;126880;-59
2021/03/18 06:17:43;;;;;;;;;18.00;16.00;;;;;10.45;40.05;98954.22;6167305;28;125395;-59
2021/03/18 06:20:51;;;;;;;;;15.75;15.00;;;;;10.38;39.96;98960.47;6184876;28;126159;-59
2021/03/18 06:24:02;;;;;;;;;17.50;15.00;;;;;10.16;39.95;98923.34;6158073;28;126737;-59
2021/03/18 06:27:03;;;;;;;;;17.00;16.00;;;;;10.46;39.74;98967.47;6159492;28;125831;-59
2021/03/18 06:30:09;;;;;;;;;18.60;16.00;;;;;10.31;39.88;98935.44;6161346;28;126663;-59
2021/03/18 06:33:26;;;;;;;;;16.00;15.00;;;;;10.55;39.42;98976.13;6149671;28;127628;-59
2021/03/18 06:36:27;;;;;;;;;17.00;16.00;;;;;10.70;39.22;98980.13;6171123;28;127597;-59
2021/03/18 06:39:31;;;;;;;;;18.00;16.50;;;;;10.78;38.93;98976.34;6175466;28;127702;-59
2021/03/18 06:42:33;;;;;;;;;16.00;15.50;;;;;10.63;38.87;98928.13;6150083;28;127740;-59
2021/03/18 06:45:40;;;;;;;;;15.00;14.00;;;;;11.00;37.83;98968.66;6176144;28;126424;-59
2021/03/18 06:48:41;;;;;;;;;16.00;14.00;;;;;10.84;37.51;98922.34;6159690;28;125996;-61
2021/03/18 06:51:59;;;;;;;;;14.00;12.20;;;;;11.30;37.56;98975.00;6171858;28;126334;-59
2021/03/18 06:55:00;;;;;;;;;17.00;16.00;;;;;11.49;37.20;98983.91;6170067;28;125723;-59
2021/03/18 06:58:14;;;;;;;;;17.00;15.00;;;;;11.61;36.96;98982.13;6174351;28;127407;-59
2021/03/18 07:01:21;;;;;;;;;14.40;14.40;;;;;11.73;36.95;98997.38;6160794;28;127091;-59
2021/03/18 07:04:39;;;;;;;;;18.60;18.00;;;;;11.95;36.15;98989.63;6167173;28;128320;-59
2021/03/18 07:07:41;;;;;;;;;15.40;14.00;;;;;12.23;35.93;98989.03;6146206;28;125815;-59
2021/03/18 07:10:42;;;;;;;;;16.00;14.00;;;;;12.70;34.57;98979.16;6170950;28;126340;-59
2021/03/18 07:13:45;;;;;;;;;13.20;13.20;;;;;14.07;32.95;98987.63;6167622;28;124612;-59
2021/03/18 07:16:47;;;;;;;;;15.20;14.00;;;;;15.28;31.10;98980.75;6175642;28;124935;-59
2021/03/18 07:19:49;;;;;;;;;14.80;13.80;;;;;15.20;30.06;98960.25;6176758;28;126332;-59
2021/03/18 07:22:53;;;;;;;;;13.40;12.40;;;;;16.41;28.87;98978.09;6175464;28;126712;-59
2021/03/18 07:25:55;;;;;;;;;12.00;11.00;;;;;17.68;26.60;98979.09;6173135;28;125932;-59
2021/03/18 07:29:16;;;;;;;;;11.00;11.00;;;;;18.97;25.05;98983.50;6173305;28;127983;-59
2021/03/18 07:32:18;;;;;;;;;10.00;10.00;;;;;20.04;23.76;98978.59;6174092;28;125787;-60
2021/03/18 07:35:20;;;;;;;;;12.00;11.60;;;;;20.87;22.95;98982.19;6177756;28;128788;-60
2021/03/18 07:38:21;;;;;;;;;12.80;11.80;;;;;21.68;21.92;98977.91;6153485;28;128219;-60
2021/03/18 07:41:23;;;;;;;;;11.00;10.00;;;;;22.23;21.71;98982.72;6174311;28;125381;-61
2021/03/18 07:44:26;;;;;;;;;11.00;10.20;;;;;22.62;20.60;98979.69;6177559;28;127452;-60
2021/03/18 07:47:28;;;;;;;;;14.00;12.80;;;;;22.87;20.65;98984.00;6171694;28;125200;-60
2021/03/18 07:50:33;;;;;;;;;11.40;11.00;;;;;23.22;19.72;98986.13;6171269;28;126238;-59
2021/03/18 07:53:35;;;;;;;;;11.00;11.00;;;;;23.31;19.68;98976.06;6174044;28;128407;-60
2021/03/18 07:56:37;;;;;;;;;13.00;11.00;;;;;22.47;20.05;98988.16;6152864;28;126312;-59
2021/03/18 07:59:44;;;;;;;;;14.60;13.00;;;;;21.75;20.94;98979.16;6172760;28;124821;-60
2021/03/18 08:02:46;;;;;;;;;9.00;9.00;;;;;21.25;21.78;98974.25;6170372;28;124823;-59
2021/03/18 08:05:48;;;;;;;;;9.80;9.80;;;;;20.49;21.89;98989.34;6172840;28;126206;-59
2021/03/18 08:08:50;;;;;;;;;11.00;10.75;;;;;19.44;22.92;98988.66;6176610;28;127624;-60
2021/03/18 08:11:52;;;;;;;;;10.00;10.00;;;;;18.79;23.76;98986.78;6174400;28;126592;-60
2021/03/18 08:15:21;;;;;;;;;15.00;13.00;;;;;18.27;24.80;98989.69;6172507;28;126385;-59
2021/03/18 08:18:22;;;;;;;;;11.40;11.40;;;;;17.82;24.29;98984.88;6163175;28;127787;-59
2021/03/18 08:21:43;;;;;;;;;10.80;8.80;;;;;18.90;22.64;98983.78;6146956;28;124324;-59
2021/03/18 08:24:44;;;;;;;;;8.80;7.20;;;;;20.45;20.32;98971.00;6169120;28;124734;-59
2021/03/18 08:27:46;;;;;;;;;8.00;8.00;;;;;21.69;19.88;98968.56;6171053;28;125598;-59
2021/03/18 08:30:55;;;;;;;;;9.80;9.00;;;;;22.41;18.37;98923.41;6175101;28;126612;-59
2021/03/18 08:33:58;;;;;;;;;7.00;7.00;;;;;23.47;17.29;98968.38;6173675;28;126607;-59
2021/03/18 08:36:59;;;;;;;;;10.50;9.00;;;;;23.48;18.03;98919.69;6158560;28;126129;-59
2021/03/18 08:40:04;;;;;;;;;5.00;5.00;;;;;24.69;15.41;98965.81;6170082;28;126346;-59
2021/03/18 08:43:07;;;;;;;;;5.25;5.00;;;;;25.69;15.65;98979.00;6177451;28;129355;-59
2021/03/18 08:46:39;;;;;;;;;4.20;3.80;;;;;26.37;14.02;98971.25;6170017;28;125894;-59
2021/03/18 08:49:43;;;;;;;;;6.00;6.00;;;;;26.66;14.26;98972.25;6154928;28;124057;-59
2021/03/18 08:52:45;;;;;;;;;5.00;4.80;;;;;26.95;13.59;98941.19;6164643;28;127964;-60
2021/03/18 08:55:47;;;;;;;;;5.00;4.00;;;;;27.41;13.49;98968.09;6172397;28;126567;-59
2021/03/18 08:58:53;;;;;;;;;4.50;4.50;;;;;27.64;13.22;98951.28;6172309;28;127928;-60
2021/03/18 09:02:09;;;;;;;;;3.00;2.60;;;;;28.13;13.29;98971.91;6166520;28;125006;-59
2021/03/18 09:05:11;;;;;;;;;1.20;1.00;;;;;26.49;14.23;98968.66;6159497;28;124761;-59
2021/03/18 09:08:13;;;;;;;;;3.00;3.00;;;;;26.84;14.25;98975.81;6172629;28;127617;-60
2021/03/18 09:11:22;;;;;;;;;4.00;4.00;;;;;27.42;13.87;98964.19;6168491;28;127361;-59
2021/03/18 09:14:24;;;;;;;;;4.00;4.00;;;;;27.41;13.79;98962.56;6169519;28;126123;-59
2021/03/18 09:17:26;;;;;;;;;6.75;5.00;;;;;27.95;14.23;98957.31;6176128;28;128365;-59
2021/03/18 09:20:46;;;;;;;;;5.00;4.67;;;;;28.07;13.54;98965.72;6166973;28;125724;-59
2021/03/18 09:24:06;;;;;;;;;6.00;5.00;;;;;27.08;14.42;98961.50;6169403;28;125718;-59
2021/03/18 09:27:10;;;;;;;;;5.00;5.00;;;;;25.66;15.33;98907.84;6165528;28;127094;-59
2021/03/18 09:30:20;;;;;;;;;6.00;5.00;;;;;24.70;15.69;98960.00;6165330;28;127429;-59
2021/03/18 09:33:24;;;;;;;;;6.00;5.60;;;;;23.73;16.66;98949.44;6168411;28;124630;-59
2021/03/18 09:36:31;;;;;;;;;5.00;5.00;;;;;22.55;17.21;98935.28;6173794;28;127829;-59
2021/03/18 09:39:32;;;;;;;;;5.00;4.00;;;;;21.49;17.92;98944.91;6171961;28;126414;-59
2021/03/18 09:42:34;;;;;;;;;2.50;2.50;;;;;20.56;18.83;98961.63;6175070;28;128924;-59
2021/03/18 09:45:59;;;;;;;;;3.00;2.00;;;;;19.78;19.71;98956.03;6151237;28;125732;-59
2021/03/18 09:49:02;;;;;;;;;4.00;4.00;;;;;18.97;19.86;98946.06;6172557;28;127930;-59
2021/03/18 09:52:08;;;;;;;;;2.60;2.00;;;;;18.43;20.81;98944.91;6172646;28;126712;-59
2021/03/18 09:55:15;;;;;;;;;3.40;3.40;;;;;18.23;21.43;98948.44;6172718;28;126863;-59
2021/03/18 09:58:17;;;;;;;;;3.00;3.00;;;;;17.83;21.41;98945.63;6145268;28;124824;-59
2021/03/18 10:01:24;;;;;;;;;3.60;3.60;;;;;17.64;22.11;98926.97;6172813;28;125300;-59
2021/03/18 10:04:26;;;;;;;;;4.60;4.00;;;;;19.10;20.84;98883.75;6176225;28;126928;-59
2021/03/18 10:07:31;;;;;;;;;6.00;6.00;;;;;20.84;20.25;98930.72;6179976;28;126130;-59
2021/03/18 10:10:34;;;;;;;;;5.60;5.00;;;;;22.22;18.56;98917.94;6174770;28;127002;-59
2021/03/18 10:13:36;;;;;;;;;6.00;5.00;;;;;22.80;17.60;98934.09;6176433;28;127876;-59
2021/03/18 10:16:39;;;;;;;;;4.00;4.00;;;;;23.58;17.20;98901.03;6152845;28;126541;-59
2021/03/18 10:20:07;;;;;;;;;4.60;3.60;;;;;22.75;16.86;98932.25;6174124;28;126772;-59
2021/03/18 10:23:10;;;;;;;;;4.00;3.50;;;;;21.96;17.35;98925.69;6082133;28;127034;-59
2021/03/18 10:26:21;;;;;;;;;2.25;2.25;;;;;21.50;17.70;98919.13;6066097;28;127424;-59
2021/03/18 10:29:32;;;;;;;;;2.75;2.75;;;;;21.94;17.00;98918.88;6063184;28;127233;-59
2021/03/18 10:32:35;;;;;;;;;3.00;3.00;;;;;21.61;16.93;98913.22;6071312;28;127307;-59
2021/03/18 10:35:43;;;;;;;;;3.00;3.00;;;;;21.36;18.29;98931.88;6075763;28;126695;-59
2021/03/18 10:38:44;;;;;;;;;1.60;1.00;;;;;21.09;17.39;98925.00;6070029;28;127260;-59
2021/03/18 10:41:57;;;;;;;;;2.00;2.00;;;;;20.70;17.98;98883.19;6068181;28;126575;-59
2021/03/18 10:45:40;;;;;;;;;3.00;3.00;;;;;20.48;18.06;98918.41;6065363;28;125862;-59
2021/03/18 10:48:46;;;;;;;;;2.00;2.00;;;;;19.86;18.48;98909.75;6059707;28;127055;-59
2021/03/18 10:51:52;;;;;;;;;4.40;4.40;;;;;20.44;18.17;98918.16;6060376;28;124249;-59
2021/03/18 10:54:56;;;;;;;;;3.50;3.50;;;;;21.10;18.47;98910.19;6064192;28;127378;-59
2021/03/18 10:58:04;;;;;;;;;5.00;5.00;;;;;21.69;17.25;98908.19;6078585;28;124703;-59
2021/03/18 11:01:08;;;;;;;;;7.40;7.20;;;;;21.32;18.83;98898.75;6144302;28;127769;-59
2021/03/18 11:04:12;;;;;;;;;7.00;6.75;;;;;20.82;19.51;98908.25;6173337;28;127129;-59
2021/03/18 11:07:13;;;;;;;;;5.80;5.00;;;;;20.27;19.94;98909.50;6171614;28;126187;-59
2021/03/18 11:10:16;;;;;;;;;6.00;5.50;;;;;20.11;18.80;98906.03;6170100;28;126890;-60
2021/03/18 11:13:21;;;;;;;;;7.00;7.00;;;;;19.80;19.04;98910.03;6170027;28;125094;-60
2021/03/18 11:16:24;;;;;;;;;8.00;7.40;;;;;19.50;19.54;98907.44;6177832;28;127214;-60
2021/03/18 11:19:26;;;;;;;;;6.00;5.00;;;;;19.89;18.89;98905.59;6169477;28;126357;-59
2021/03/18 11:22:28;;;;;;;;;4.80;4.80;;;;;20.16;18.52;98889.59;6149497;28;127587;-59
2021/03/18 11:25:29;;;;;;;;;5.00;4.00;;;;;20.77;16.79;98898.16;6170316;28;126632;-60
2021/03/18 11:28:32;;;;;;;;;4.40;4.00;;;;;21.35;15.75;98891.88;6174289;28;127811;-59
2021/03/18 11:31:38;;;;;;;;;3.75;3.75;;;;;21.90;15.56;98887.59;6175298;28;128315;-60
2021/03/18 11:34:43;;;;;;;;;4.00;4.00;;;;;21.06;15.37;98832.38;6176015;28;124793;-60
2021/03/18 11:37:44;;;;;;;;;5.00;5.00;;;;;21.55;16.11;98881.44;6172488;28;125368;-59
2021/03/18 11:41:15;;;;;;;;;6.00;6.00;;;;;22.11;16.46;98868.94;6176027;28;127686;-59
2021/03/18 11:44:17;;;;;;;;;5.00;5.00;;;;;22.55;16.96;98874.81;6176023;28;127379;-60
2021/03/18 11:47:18;;;;;;;;;6.00;5.50;;;;;21.92;16.82;98880.72;6173587;28;125916;-59
2021/03/18 11:50:20;;;;;;;;;6.00;6.00;;;;;21.05;17.13;98825.28;6172104;28;126317;-60
2021/03/18 11:53:22;;;;;;;;;7.00;7.00;;;;;21.18;17.63;98871.22;6178243;28;126729;-59
2021/03/18 11:56:25;;;;;;;;;7.00;7.00;;;;;20.08;17.97;98813.56;6173702;28;127319;-59
2021/03/18 11:59:27;;;;;;;;;7.00;6.00;;;;;19.22;19.10;98849.53;6145705;28;126619;-59
2021/03/18 12:02:28;;;;;;;;;8.00;7.00;;;;;18.72;19.85;98866.03;6172777;28;123676;-59
2021/03/18 12:05:37;;;;;;;;;7.00;7.00;;;;;17.86;20.50;98858.63;6174613;28;127032;-59
2021/03/18 12:08:38;;;;;;;;;7.00;7.00;;;;;17.43;20.47;98868.00;6169004;28;127957;-60
2021/03/18 12:11:40;;;;;;;;;6.60;6.00;;;;;18.32;20.34;98850.50;6173550;28;128985;-59
2021/03/18 12:14:45;;;;;;;;;5.00;4.60;;;;;19.05;19.29;98827.22;6174583;28;126592;-60
2021/03/18 12:17:47;;;;;;;;;6.80;6.80;;;;;19.35;19.04;98845.41;6175894;28;125925;-60
2021/03/18 12:20:50;;;;;;;;;8.00;6.25;;;;;19.30;19.04;98842.69;6174159;28;124336;-59
2021/03/18 12:23:51;;;;;;;;;9.25;8.25;;;;;18.81;19.68;98848.03;6170996;28;125159;-59
2021/03/18 12:26:53;;;;;;;;;7.00;6.00;;;;;18.12;20.51;98843.13;6170715;28;126993;-59
2021/03/18 12:29:54;;;;;;;;;5.00;5.00;;;;;17.63;21.10;98846.28;6173474;28;127447;-61
2021/03/18 12:32:56;;;;;;;;;8.00;7.40;;;;;17.02;21.03;98826.13;6175102;28;127169;-59
2021/03/18 12:35:58;;;;;;;;;7.40;7.00;;;;;17.61;20.95;98850.38;6171663;28;125390;-59
2021/03/18 12:39:00;;;;;;;;;9.00;8.00;;;;;18.09;20.36;98836.28;6176779;28;127860;-59
2021/03/18 12:42:04;;;;;;;;;7.00;7.00;;;;;18.58;20.35;98835.75;6171471;28;125827;-59
2021/03/18 12:45:09;;;;;;;;;9.33;9.00;;;;;19.17;20.22;98840.53;6168249;28;126482;-59
2021/03/18 12:48:11;;;;;;;;;11.50;11.00;;;;;19.59;19.87;98821.81;6171718;28;127881;-58
2021/03/18 12:51:13;;;;;;;;;11.00;11.00;;;;;19.78;19.22;98789.16;6150650;28;127677;-59
2021/03/18 12:54:15;;;;;;;;;12.00;10.80;;;;;19.73;18.88;98816.53;6169786;28;127596;-58
2021/03/18 12:57:18;;;;;;;;;11.00;11.00;;;;;18.89;19.18;98788.19;6176873;28;127553;-58
2021/03/18 13:00:23;;;;;;;;;10.00;9.00;;;;;18.45;19.30;98828.91;6173588;28;126446;-59
2021/03/18 13:03:24;;;;;;;;;8.40;8.00;;;;;17.81;19.75;98820.44;6144265;28;125651;-58
2021/03/18 13:06:26;;;;;;;;;8.00;7.00;;;;;17.32;20.06;98814.53;6176475;28;124987;-59
2021/03/18 13:09:28;;;;;;;;;9.00;9.00;;;;;16.85;20.45;98820.88;6177070;28;126519;-60
2021/03/18 13:12:29;;;;;;;;;10.60;10.20;;;;;16.56;21.45;98814.13;6176547;28;128394;-59
2021/03/18 13:15:31;;;;;;;;;13.00;13.00;;;;;16.22;22.46;98799.19;6171895;28;124902;-59
2021/03/18 13:18:32;;;;;;;;;12.20;12.00;;;;;15.95;22.82;98813.63;6173950;28;126678;-59
2021/03/18 13:21:39;;;;;;;;;13.50;12.25;;;;;15.69;22.97;98808.19;6172046;28;125561;-59
2021/03/18 13:24:40;;;;;;;;;11.75;11.00;;;;;15.81;22.46;98808.88;6172554;28;127701;-58
2021/03/18 13:27:42;;;;;;;;;12.00;11.00;;;;;15.93;21.72;98790.50;6165792;28;126700;-59
2021/03/18 13:30:46;;;;;;;;;11.00;11.00;;;;;16.40;22.18;98809.66;6172096;28;125491;-60
2021/03/18 13:33:48;;;;;;;;;11.00;10.00;;;;;16.69;21.78;98772.03;6150163;28;127290;-59
2021/03/18 13:36:50;;;;;;;;;11.40;11.00;;;;;17.17;20.64;98796.22;6177359;28;125410;-59
2021/03/18 13:39:52;;;;;;;;;11.00;11.00;;;;;16.82;20.63;98755.22;6174786;28;126622;-59
2021/03/18 13:42:53;;;;;;;;;12.40;12.00;;;;;17.01;21.37;98796.41;6170580;28;126784;-60
2021/03/18 13:45:55;;;;;;;;;10.80;10.80;;;;;17.23;21.55;98795.16;6152117;28;126753;-59
2021/03/18 13:48:57;;;;;;;;;12.00;12.00;;;;;17.05;21.30;98797.53;6176485;28;126388;-58
2021/03/18 13:52:00;;;;;;;;;12.25;11.25;;;;;16.84;20.87;98794.72;6175208;28;127532;-59
2021/03/18 13:55:06;;;;;;;;;13.00;12.00;;;;;16.48;21.66;98782.75;6177377;28;124707;-60
2021/03/18 13:58:08;;;;;;;;;12.40;11.00;;;;;16.31;20.86;98790.28;6173055;28;126223;-59
2021/03/18 14:01:10;;;;;;;;;11.00;10.00;;;;;16.07;20.92;98791.72;6147202;28;125120;-59
2021/03/18 14:04:11;;;;;;;;;11.00;10.60;;;;;15.92;21.24;98788.88;6172586;28;124805;-59
2021/03/18 14:07:14;;;;;;;;;14.00;11.00;;;;;15.86;21.69;98787.16;6174788;28;127772;-58